createdAt,value
2023-04-15T00:00:30.954Z,90.715
2023-04-15T00:01:31.146Z,90.513
2023-04-15T00:02:30.868Z,90.401
2023-04-15T00:03:31.777Z,90.422
2023-04-15T00:04:30.837Z,90.658
2023-04-15T00:05:31.460Z,90.725
2023-04-15T00:06:30.572Z,90.530
2023-04-15T00:07:30.731Z,90.538
2023-04-15T00:08:30.962Z,90.618
2023-04-15T00:09:31.187Z,90.500
2023-04-15T00:10:31.306Z,90.714
2023-04-15T00:11:31.524Z,90.683
2023-04-15T00:12:30.939Z,90.729
2023-04-15T00:13:31.097Z,90.790
2023-04-15T00:14:31.236Z,90.687
2023-04-15T00:15:31.426Z,90.605
2023-04-15T00:16:31.689Z,90.523
2023-04-15T00:17:31.062Z,90.296
2023-04-15T00:18:31.727Z,90.351
2023-04-15T00:19:31.022Z,90.441
2023-04-15T00:20:31.231Z,90.481
2023-04-15T00:21:31.380Z,90.527
2023-04-15T00:22:31.541Z,90.620
2023-04-15T00:23:30.724Z,90.460
2023-04-15T00:24:30.921Z,90.561
2023-04-15T00:25:31.150Z,90.612
2023-04-15T00:26:31.316Z,90.633
2023-04-15T00:27:30.788Z,90.563
2023-04-15T00:28:31.028Z,90.633
2023-04-15T00:29:31.157Z,90.532
2023-04-15T00:30:31.516Z,90.492
2023-04-15T00:31:31.024Z,90.502
2023-04-15T00:32:31.232Z,90.557
2023-04-15T00:33:31.808Z,90.536
2023-04-15T00:34:30.976Z,90.584
2023-04-15T00:35:31.139Z,90.454
2023-04-15T00:36:31.281Z,90.326
2023-04-15T00:37:31.451Z,90.199
2023-04-15T00:38:31.394Z,90.199
2023-04-15T00:39:31.514Z,90.195
2023-04-15T00:40:32.071Z,90.038
2023-04-15T00:41:31.153Z,90.010
2023-04-15T00:42:31.330Z,89.932
2023-04-15T00:43:31.227Z,89.878
2023-04-15T00:44:31.446Z,89.892
2023-04-15T00:45:30.673Z,89.903
2023-04-15T00:46:30.958Z,89.876
2023-04-15T00:47:31.179Z,89.892
2023-04-15T00:48:31.547Z,89.832
2023-04-15T00:49:30.666Z,89.823
2023-04-15T00:50:30.881Z,89.764
2023-04-15T00:51:31.082Z,89.825
2023-04-15T00:52:31.260Z,89.991
2023-04-15T00:53:31.386Z,89.954
2023-04-15T00:54:31.610Z,89.995
2023-04-15T00:55:30.720Z,90.017
2023-04-15T00:56:31.001Z,90.021
2023-04-15T00:57:31.157Z,90.036
2023-04-15T00:58:31.383Z,90.277
2023-04-15T00:59:31.559Z,90.277
2023-04-15T01:00:30.740Z,90.258
2023-04-15T01:01:30.870Z,90.241
2023-04-15T01:02:31.709Z,90.258
2023-04-15T01:03:31.862Z,90.180
2023-04-15T01:04:30.868Z,90.315
2023-04-15T01:05:31.175Z,90.408
2023-04-15T01:06:31.318Z,90.592
2023-04-15T01:07:31.466Z,90.336
2023-04-15T01:08:30.682Z,90.349
2023-04-15T01:09:30.851Z,90.281
2023-04-15T01:10:31.018Z,90.269
2023-04-15T01:11:31.107Z,90.401
2023-04-15T01:12:31.286Z,90.433
2023-04-15T01:13:30.635Z,90.489
2023-04-15T01:14:30.796Z,90.534
2023-04-15T01:15:31.005Z,90.746
2023-04-15T01:16:31.537Z,90.721
2023-04-15T01:17:30.874Z,90.677
2023-04-15T01:18:31.240Z,90.582
2023-04-15T01:19:31.655Z,90.742
2023-04-15T01:20:30.844Z,90.653
2023-04-15T01:21:31.023Z,90.786
2023-04-15T01:22:31.276Z,90.757
2023-04-15T01:23:31.468Z,90.700
2023-04-15T01:24:30.584Z,90.698
2023-04-15T01:25:30.960Z,90.672
2023-04-15T01:26:31.076Z,90.645
2023-04-15T01:27:31.206Z,90.696
2023-04-15T01:28:31.420Z,90.485
2023-04-15T01:29:30.848Z,90.498
2023-04-15T01:30:31.106Z,90.387
2023-04-15T01:31:31.426Z,90.614
2023-04-15T01:32:30.762Z,90.603
2023-04-15T01:33:31.174Z,90.656
2023-04-15T01:34:32.553Z,90.670
2023-04-15T01:35:31.398Z,90.590
2023-04-15T01:36:31.555Z,90.710
2023-04-15T01:37:30.808Z,90.838
2023-04-15T01:38:30.936Z,90.700
2023-04-15T01:39:31.067Z,90.750
2023-04-15T01:40:31.761Z,90.735
2023-04-15T01:41:30.907Z,91.023
2023-04-15T01:42:31.419Z,90.714
2023-04-15T01:43:31.663Z,90.885
2023-04-15T01:44:30.873Z,90.860
2023-04-15T01:45:31.092Z,90.809
2023-04-15T01:46:31.348Z,90.866
2023-04-15T01:47:30.696Z,90.836
2023-04-15T01:48:31.136Z,90.956
2023-04-15T01:49:30.771Z,90.864
2023-04-15T01:50:30.925Z,90.862
2023-04-15T01:51:31.116Z,90.853
2023-04-15T01:52:31.243Z,90.801
2023-04-15T01:53:31.316Z,90.954
2023-04-15T01:54:31.459Z,90.878
2023-04-15T01:55:31.608Z,90.977
2023-04-15T01:56:30.719Z,90.721
2023-04-15T01:57:30.889Z,90.895
2023-04-15T01:58:31.120Z,90.977
2023-04-15T01:59:31.347Z,90.914
2023-04-15T02:00:31.560Z,90.855
2023-04-15T02:01:31.116Z,90.761
2023-04-15T02:02:31.769Z,90.702
2023-04-15T02:03:31.263Z,90.740
2023-04-15T02:06:31.280Z,90.525
2023-04-15T02:07:31.378Z,90.588
2023-04-15T02:08:31.569Z,90.429
2023-04-15T02:09:30.648Z,90.550
2023-04-15T02:10:30.795Z,90.569
2023-04-15T02:11:30.974Z,90.565
2023-04-15T02:12:31.191Z,90.477
2023-04-15T02:13:31.275Z,90.494
2023-04-15T02:14:31.462Z,90.622
2023-04-15T02:15:30.563Z,90.609
2023-04-15T02:16:30.764Z,90.649
2023-04-15T02:17:31.338Z,90.550
2023-04-15T02:18:30.711Z,90.445
2023-04-15T02:19:30.901Z,90.519
2023-04-15T02:20:31.087Z,90.532
2023-04-15T02:21:31.223Z,90.599
2023-04-15T02:22:31.377Z,90.517
2023-04-15T02:23:31.552Z,90.424
2023-04-15T02:24:30.850Z,90.220
2023-04-15T02:25:31.315Z,90.204
2023-04-15T02:26:31.445Z,90.429
2023-04-15T02:27:31.580Z,90.565
2023-04-15T02:28:30.700Z,90.485
2023-04-15T02:29:30.822Z,90.441
2023-04-15T02:30:30.970Z,90.405
2023-04-15T02:31:31.092Z,90.584
2023-04-15T02:32:31.772Z,90.502
2023-04-15T02:33:31.073Z,90.675
2023-04-15T02:34:31.300Z,90.695
2023-04-15T02:35:31.396Z,90.563
2023-04-15T02:36:31.567Z,90.424
2023-04-15T02:37:30.784Z,90.563
2023-04-15T02:38:30.960Z,90.551
2023-04-15T02:39:31.127Z,90.614
2023-04-15T02:40:31.461Z,90.624
2023-04-15T02:41:30.889Z,90.515
2023-04-15T02:42:31.190Z,90.651
2023-04-15T02:43:31.455Z,90.443
2023-04-15T02:44:31.672Z,90.321
2023-04-15T02:45:30.799Z,90.397
2023-04-15T02:46:31.433Z,90.393
2023-04-15T02:47:30.703Z,90.582
2023-04-15T02:48:30.909Z,90.418
2023-04-15T02:49:31.959Z,90.408
2023-04-15T02:50:31.104Z,90.284
2023-04-15T02:51:31.255Z,90.372
2023-04-15T02:52:31.496Z,90.414
2023-04-15T02:53:30.639Z,90.170
2023-04-15T02:54:30.851Z,90.134
2023-04-15T02:55:31.024Z,90.277
2023-04-15T02:56:31.178Z,90.180
2023-04-15T02:57:31.616Z,89.924
2023-04-15T02:58:30.784Z,89.901
2023-04-15T02:59:31.008Z,90.122
2023-04-15T03:00:31.234Z,89.953
2023-04-15T03:01:31.649Z,89.987
2023-04-15T03:02:31.551Z,90.115
2023-04-15T03:03:30.703Z,90.096
2023-04-15T03:04:31.823Z,89.811
2023-04-15T03:07:31.392Z,89.548
2023-04-15T03:08:31.535Z,89.523
2023-04-15T03:09:30.703Z,89.485
2023-04-15T03:10:30.916Z,89.611
2023-04-15T03:11:31.147Z,89.563
2023-04-15T03:12:31.264Z,89.506
2023-04-15T03:13:31.477Z,89.506
2023-04-15T03:14:30.672Z,89.512
2023-04-15T03:15:30.845Z,89.447
2023-04-15T03:16:31.282Z,89.375
2023-04-15T03:17:31.463Z,89.361
2023-04-15T03:18:30.732Z,89.466
2023-04-15T03:19:31.053Z,89.525
2023-04-15T03:20:31.326Z,89.653
2023-04-15T03:21:30.602Z,89.756
2023-04-15T03:22:30.808Z,89.714
2023-04-15T03:23:30.984Z,90.155
2023-04-15T03:24:31.145Z,90.386
2023-04-15T03:25:31.391Z,90.201
2023-04-15T03:26:31.576Z,90.164
2023-04-15T03:27:30.697Z,90.031
2023-04-15T03:28:30.859Z,89.867
2023-04-15T03:29:31.071Z,90.319
2023-04-15T03:30:31.265Z,90.195
2023-04-15T03:31:31.668Z,90.218
2023-04-15T03:32:30.844Z,90.336
2023-04-15T03:33:31.186Z,90.271
2023-04-15T03:34:31.311Z,90.288
2023-04-15T03:35:31.588Z,90.387
2023-04-15T03:36:30.676Z,90.283
2023-04-15T03:37:30.863Z,90.590
2023-04-15T03:38:31.056Z,90.487
2023-04-15T03:39:31.263Z,90.468
2023-04-15T03:40:31.384Z,90.342
2023-04-15T03:41:31.544Z,90.489
2023-04-15T03:42:30.656Z,90.576
2023-04-15T03:43:30.893Z,90.597
2023-04-15T03:44:31.084Z,90.592
2023-04-15T03:45:31.280Z,90.473
2023-04-15T03:46:31.486Z,90.529
2023-04-15T03:47:30.879Z,90.313
2023-04-15T03:48:36.061Z,90.468
2023-04-15T03:50:31.325Z,90.479
2023-04-15T03:51:31.455Z,90.294
2023-04-15T03:52:30.689Z,90.408
2023-04-15T03:53:31.554Z,90.214
2023-04-15T03:54:30.683Z,90.254
2023-04-15T03:55:30.872Z,90.197
2023-04-15T03:56:31.036Z,90.109
2023-04-15T03:57:31.122Z,90.063
2023-04-15T03:58:31.255Z,90.094
2023-04-15T03:59:31.390Z,90.172
2023-04-15T04:00:31.552Z,90.271
2023-04-15T04:01:30.711Z,90.321
2023-04-15T04:02:31.316Z,90.283
2023-04-15T04:03:31.682Z,90.319
2023-04-15T04:04:30.970Z,90.233
2023-04-15T04:05:31.523Z,90.145
2023-04-15T04:06:30.662Z,90.122
2023-04-15T04:07:30.798Z,90.160
2023-04-15T04:08:30.960Z,90.206
2023-04-15T04:09:31.121Z,90.130
2023-04-15T04:10:31.270Z,90.128
2023-04-15T04:11:31.464Z,90.168
2023-04-15T04:12:31.602Z,90.115
2023-04-15T04:13:30.705Z,90.059
2023-04-15T04:14:30.858Z,90.323
2023-04-15T04:15:31.178Z,90.338
2023-04-15T04:16:31.638Z,90.338
2023-04-15T04:17:31.048Z,90.267
2023-04-15T04:18:31.400Z,90.456
2023-04-15T04:19:31.506Z,90.355
2023-04-15T04:20:30.661Z,90.281
2023-04-15T04:21:30.791Z,90.370
2023-04-15T04:22:31.096Z,90.284
2023-04-15T04:23:31.606Z,90.407
2023-04-15T04:24:30.747Z,90.342
2023-04-15T04:25:30.947Z,90.378
2023-04-15T04:26:31.137Z,90.603
2023-04-15T04:27:31.374Z,90.508
2023-04-15T04:28:31.492Z,90.387
2023-04-15T04:29:30.638Z,90.338
2023-04-15T04:30:30.803Z,90.416
2023-04-15T04:31:30.970Z,90.164
2023-04-15T04:32:31.422Z,90.324
2023-04-15T04:33:30.739Z,90.380
2023-04-15T04:34:30.841Z,90.323
2023-04-15T04:35:31.141Z,90.267
2023-04-15T04:36:31.630Z,90.201
2023-04-15T04:37:30.778Z,90.138
2023-04-15T04:38:30.912Z,90.178
2023-04-15T04:39:31.066Z,90.250
2023-04-15T04:40:31.231Z,90.262
2023-04-15T04:41:31.376Z,90.254
2023-04-15T04:42:31.532Z,90.216
2023-04-15T04:43:30.627Z,90.132
2023-04-15T04:44:30.722Z,90.206
2023-04-15T04:45:30.928Z,90.218
2023-04-15T04:46:31.360Z,90.281
2023-04-15T04:47:31.643Z,90.185
2023-04-15T04:48:30.957Z,90.298
2023-04-15T04:49:30.609Z,90.256
2023-04-15T04:50:30.776Z,90.006
2023-04-15T04:51:30.979Z,90.067
2023-04-15T04:52:31.175Z,90.054
2023-04-15T04:53:31.391Z,89.754
2023-04-15T04:54:31.561Z,89.937
2023-04-15T04:55:30.712Z,89.775
2023-04-15T04:56:30.905Z,89.867
2023-04-15T04:57:30.979Z,89.644
2023-04-15T04:58:31.131Z,89.592
2023-04-15T04:59:31.483Z,89.769
2023-04-15T05:00:30.619Z,89.668
2023-04-15T05:01:30.985Z,89.710
2023-04-15T05:02:31.955Z,89.733
2023-04-15T05:03:31.014Z,89.726
2023-04-15T05:06:31.060Z,89.623
2023-04-15T05:07:31.190Z,89.838
2023-04-15T05:08:31.350Z,89.609
2023-04-15T05:09:31.512Z,89.661
2023-04-15T05:10:30.643Z,89.689
2023-04-15T05:11:30.760Z,89.670
2023-04-15T05:12:30.879Z,89.729
2023-04-15T05:13:31.016Z,89.748
2023-04-15T05:14:31.128Z,89.527
2023-04-15T05:15:31.371Z,89.550
2023-04-15T05:16:31.709Z,89.537
2023-04-15T05:17:30.858Z,89.586
2023-04-15T05:18:31.280Z,89.497
2023-04-15T05:19:31.422Z,89.506
2023-04-15T05:20:31.622Z,89.415
2023-04-15T05:21:30.706Z,89.268
2023-04-15T05:22:30.955Z,89.205
2023-04-15T05:23:31.212Z,89.203
2023-04-15T05:24:31.414Z,89.060
2023-04-15T05:25:31.587Z,88.886
2023-04-15T05:26:30.695Z,88.787
2023-04-15T05:27:30.881Z,88.778
2023-04-15T05:28:31.092Z,88.669
2023-04-15T05:29:31.240Z,88.707
2023-04-15T05:30:32.638Z,88.532
2023-04-15T05:32:31.272Z,88.520
2023-04-15T05:33:30.783Z,88.434
2023-04-15T05:34:31.030Z,88.148
2023-04-15T05:35:31.231Z,88.371
2023-04-15T05:36:31.427Z,88.152
2023-04-15T05:37:31.580Z,88.053
2023-04-15T05:38:30.708Z,87.919
2023-04-15T05:39:30.884Z,87.936
2023-04-15T05:40:30.987Z,87.839
2023-04-15T05:41:31.203Z,87.788
2023-04-15T05:42:31.409Z,87.763
2023-04-15T05:43:31.523Z,87.652
2023-04-15T05:44:30.760Z,87.698
2023-04-15T05:45:30.872Z,87.391
2023-04-15T05:46:31.317Z,87.471
2023-04-15T05:47:30.678Z,88.074
2023-04-15T05:48:30.923Z,87.584
2023-04-15T05:49:31.102Z,87.542
2023-04-15T05:50:31.263Z,86.990
2023-04-15T05:51:31.573Z,86.948
2023-04-15T05:52:30.747Z,87.231
2023-04-15T05:53:30.954Z,86.597
2023-04-15T05:54:31.180Z,86.695
2023-04-15T05:55:31.526Z,86.777
2023-04-15T05:56:31.609Z,86.582
2023-04-15T05:57:30.732Z,86.403
2023-04-15T05:58:30.950Z,86.670
2023-04-15T05:59:31.127Z,86.584
2023-04-15T06:00:31.370Z,86.647
2023-04-15T06:01:31.575Z,86.346
2023-04-15T06:02:31.015Z,86.666
2023-04-15T06:03:31.144Z,86.607
2023-04-15T06:04:31.304Z,86.437
2023-04-15T06:05:30.810Z,86.121
2023-04-15T06:06:31.035Z,86.561
2023-04-15T06:07:31.231Z,86.294
2023-04-15T06:08:30.969Z,86.071
2023-04-15T06:09:31.068Z,85.985
2023-04-15T06:10:31.276Z,85.852
2023-04-15T06:11:31.544Z,86.187
2023-04-15T06:12:30.718Z,85.810
2023-04-15T06:13:30.896Z,85.913
2023-04-15T06:14:31.048Z,86.069
2023-04-15T06:15:31.224Z,85.653
2023-04-15T06:16:31.607Z,85.623
2023-04-15T06:17:30.963Z,85.747
2023-04-15T06:18:31.295Z,85.825
2023-04-15T06:19:31.608Z,85.341
2023-04-15T06:20:30.766Z,85.680
2023-04-15T06:21:30.926Z,85.390
2023-04-15T06:22:31.045Z,85.716
2023-04-15T06:23:31.199Z,85.649
2023-04-15T06:24:31.396Z,85.503
2023-04-15T06:25:31.503Z,85.758
2023-04-15T06:26:30.634Z,85.104
2023-04-15T06:27:30.807Z,85.812
2023-04-15T06:28:30.950Z,85.569
2023-04-15T06:29:31.108Z,85.629
2023-04-15T06:30:31.374Z,85.405
2023-04-15T06:31:31.684Z,85.300
2023-04-15T06:32:31.048Z,85.308
2023-04-15T06:33:31.572Z,85.196
2023-04-15T06:34:30.764Z,85.255
2023-04-15T06:35:30.975Z,84.709
2023-04-15T06:36:31.193Z,85.276
2023-04-15T06:37:31.324Z,84.764
2023-04-15T06:38:31.607Z,85.249
2023-04-15T06:39:30.718Z,85.129
2023-04-15T06:40:30.921Z,85.114
2023-04-15T06:41:31.075Z,85.506
2023-04-15T06:42:31.256Z,85.606
2023-04-15T06:43:31.539Z,85.205
2023-04-15T06:44:32.094Z,84.770
2023-04-15T06:45:30.893Z,84.784
2023-04-15T06:46:31.086Z,85.905
2023-04-15T06:47:31.259Z,85.814
2023-04-15T06:48:30.635Z,85.861
2023-04-15T06:49:30.781Z,84.652
2023-04-15T06:50:30.980Z,85.297
2023-04-15T06:51:31.241Z,85.445
2023-04-15T06:52:31.254Z,86.229
2023-04-15T06:53:31.443Z,85.886
2023-04-15T06:54:31.571Z,85.705
2023-04-15T06:55:30.802Z,85.960
2023-04-15T06:56:30.982Z,86.876
2023-04-15T06:57:31.969Z,86.693
2023-04-15T06:58:31.031Z,86.712
2023-04-15T06:59:31.416Z,86.750
2023-04-15T07:00:31.537Z,87.147
2023-04-15T07:01:30.910Z,86.302
2023-04-15T07:02:31.760Z,86.681
2023-04-15T07:03:34.115Z,86.792
2023-04-15T07:05:30.727Z,86.985
2023-04-15T07:06:30.883Z,86.556
2023-04-15T07:07:31.036Z,87.475
2023-04-15T07:08:31.183Z,87.526
2023-04-15T07:09:31.361Z,87.486
2023-04-15T07:10:31.668Z,87.858
2023-04-15T07:11:30.786Z,87.519
2023-04-15T07:12:31.012Z,87.156
2023-04-15T07:13:31.171Z,86.607
2023-04-15T07:14:31.339Z,87.240
2023-04-15T07:15:31.527Z,87.708
2023-04-15T07:16:30.650Z,87.963
2023-04-15T07:17:31.241Z,87.719
2023-04-15T07:18:31.567Z,88.041
2023-04-15T07:19:30.736Z,88.099
2023-04-15T07:20:30.890Z,88.182
2023-04-15T07:21:31.003Z,87.149
2023-04-15T07:22:31.149Z,87.576
2023-04-15T07:23:31.546Z,87.589
2023-04-15T07:24:30.710Z,87.711
2023-04-15T07:25:30.907Z,87.740
2023-04-15T07:26:31.078Z,87.938
2023-04-15T07:27:31.231Z,88.436
2023-04-15T07:28:31.566Z,88.116
2023-04-15T07:29:30.775Z,88.135
2023-04-15T07:30:30.949Z,87.967
2023-04-15T07:31:31.478Z,87.631
2023-04-15T07:32:30.758Z,88.547
2023-04-15T07:33:31.246Z,89.117
2023-04-15T07:34:33.014Z,87.376
2023-04-15T07:35:31.255Z,87.168
2023-04-15T07:36:31.329Z,87.868
2023-04-15T07:37:31.471Z,88.224
2023-04-15T07:38:30.600Z,88.678
2023-04-15T07:39:30.719Z,88.528
2023-04-15T07:40:30.931Z,88.955
2023-04-15T07:41:31.181Z,88.671
2023-04-15T07:42:31.308Z,88.350
2023-04-15T07:43:31.442Z,87.957
2023-04-15T07:44:31.577Z,87.772
2023-04-15T07:45:30.710Z,88.272
2023-04-15T07:46:31.125Z,88.432
2023-04-15T07:47:31.360Z,88.537
2023-04-15T07:48:30.840Z,87.997
2023-04-15T07:49:31.036Z,88.335
2023-04-15T07:50:31.275Z,88.789
2023-04-15T07:51:31.429Z,88.305
2023-04-15T07:52:31.542Z,88.511
2023-04-15T07:53:30.664Z,88.993
2023-04-15T07:54:30.738Z,89.270
2023-04-15T07:55:30.905Z,89.031
2023-04-15T07:56:31.306Z,88.953
2023-04-15T07:57:31.492Z,88.892
2023-04-15T07:58:30.646Z,88.577
2023-04-15T07:59:30.772Z,89.666
2023-04-15T08:00:31.033Z,89.663
2023-04-15T08:01:31.144Z,89.409
2023-04-15T08:02:31.891Z,90.250
2023-04-15T08:03:31.020Z,89.094
2023-04-15T08:04:31.290Z,89.851
2023-04-15T08:06:31.090Z,89.480
2023-04-15T08:07:31.458Z,90.221
2023-04-15T08:08:30.611Z,89.939
2023-04-15T08:09:30.727Z,90.082
2023-04-15T08:10:30.878Z,89.960
2023-04-15T08:11:30.888Z,90.700
2023-04-15T08:12:31.017Z,90.324
2023-04-15T08:13:31.170Z,89.186
2023-04-15T08:14:31.300Z,90.105
2023-04-15T08:15:31.484Z,91.370
2023-04-15T08:16:30.756Z,91.126
2023-04-15T08:17:31.147Z,90.504
2023-04-15T08:18:31.548Z,91.074
2023-04-15T08:19:30.827Z,91.734
2023-04-15T08:20:31.029Z,90.807
2023-04-15T08:21:31.271Z,91.026
2023-04-15T08:22:36.436Z,90.639
2023-04-15T08:24:30.950Z,90.870
2023-04-15T08:25:31.175Z,91.307
2023-04-15T08:26:31.192Z,91.427
2023-04-15T08:27:31.451Z,91.160
2023-04-15T08:28:31.683Z,91.034
2023-04-15T08:29:30.835Z,90.275
2023-04-15T08:30:31.005Z,90.660
2023-04-15T08:31:31.311Z,90.887
2023-04-15T08:32:30.700Z,90.763
2023-04-15T08:33:31.179Z,91.583
2023-04-15T08:34:31.391Z,91.572
2023-04-15T08:35:31.580Z,91.597
2023-04-15T08:36:30.717Z,91.045
2023-04-15T08:37:30.848Z,90.883
2023-04-15T08:38:31.043Z,91.648
2023-04-15T08:39:30.651Z,91.740
2023-04-15T08:40:30.768Z,91.675
2023-04-15T08:41:30.959Z,91.576
2023-04-15T08:42:31.137Z,91.433
2023-04-15T08:43:31.348Z,91.433
2023-04-15T08:44:31.492Z,90.742
2023-04-15T08:45:30.703Z,91.263
2023-04-15T08:46:30.985Z,91.406
2023-04-15T08:47:31.476Z,90.994
2023-04-15T08:48:30.902Z,91.269
2023-04-15T08:49:31.079Z,91.864
2023-04-15T08:50:31.269Z,91.663
2023-04-15T08:51:31.520Z,91.101
2023-04-15T08:52:30.737Z,91.675
2023-04-15T08:53:31.000Z,91.608
2023-04-15T08:54:31.173Z,91.923
2023-04-15T08:55:31.475Z,90.805
2023-04-15T08:56:30.835Z,91.284
2023-04-15T08:57:31.151Z,91.469
2023-04-15T08:58:31.663Z,90.801
2023-04-15T08:59:30.816Z,91.055
2023-04-15T09:00:30.974Z,91.211
2023-04-15T09:01:31.571Z,91.511
2023-04-15T09:02:31.056Z,91.833
2023-04-15T09:03:31.230Z,91.766
2023-04-15T09:04:31.179Z,91.576
2023-04-15T09:05:31.355Z,89.974
2023-04-15T09:06:31.540Z,89.712
2023-04-15T09:07:30.740Z,90.328
2023-04-15T09:08:31.083Z,89.882
2023-04-15T09:09:31.248Z,91.044
2023-04-15T09:10:31.468Z,90.353
2023-04-15T09:11:30.712Z,91.688
2023-04-15T09:12:30.844Z,91.450
2023-04-15T09:13:31.028Z,91.269
2023-04-15T09:14:31.197Z,90.937
2023-04-15T09:15:31.411Z,91.490
2023-04-15T09:16:31.587Z,91.002
2023-04-15T09:17:30.866Z,91.515
2023-04-15T09:18:32.741Z,91.864
2023-04-15T09:21:31.183Z,91.494
2023-04-15T09:22:31.387Z,91.730
2023-04-15T09:23:31.547Z,91.986
2023-04-15T09:24:31.050Z,91.709
2023-04-15T09:25:32.886Z,92.182
2023-04-15T09:26:31.837Z,91.089
2023-04-15T09:27:31.197Z,91.303
2023-04-15T09:28:31.303Z,91.761
2023-04-15T09:29:31.433Z,91.530
2023-04-15T09:30:32.336Z,91.341
2023-04-15T09:31:31.329Z,91.412
2023-04-15T09:32:31.934Z,91.826
2023-04-15T09:33:31.541Z,91.934
2023-04-15T09:34:31.928Z,91.826
2023-04-15T09:35:31.675Z,91.904
2023-04-15T09:36:32.253Z,90.780
2023-04-15T09:37:34.081Z,91.374
2023-04-15T09:39:31.457Z,90.662
2023-04-15T09:40:30.646Z,91.097
2023-04-15T09:41:30.768Z,91.572
2023-04-15T09:42:31.256Z,91.780
2023-04-15T09:43:31.348Z,91.618
2023-04-15T09:44:31.511Z,90.641
2023-04-15T09:45:31.017Z,90.714
2023-04-15T09:48:31.307Z,91.677
2023-04-15T09:49:31.673Z,91.578
2023-04-15T09:50:31.020Z,91.099
2023-04-15T09:51:31.221Z,91.587
2023-04-15T09:53:34.181Z,90.332
2023-04-15T09:54:34.367Z,90.902
2023-04-15T09:55:34.597Z,90.639
2023-04-15T09:56:33.833Z,91.461
2023-04-15T09:57:34.027Z,90.941
2023-04-15T09:58:34.460Z,91.599
2023-04-15T09:59:33.710Z,91.211
2023-04-15T10:00:33.992Z,91.379
2023-04-15T10:01:34.386Z,91.478
2023-04-15T10:02:34.385Z,91.553
2023-04-15T10:03:34.719Z,91.234
2023-04-15T10:05:33.645Z,91.642
2023-04-15T10:06:33.784Z,91.890
2023-04-15T10:07:33.966Z,91.538
2023-04-15T10:08:34.151Z,91.932
2023-04-15T10:09:34.511Z,92.152
2023-04-15T10:10:33.845Z,92.064
2023-04-15T10:11:34.051Z,91.999
2023-04-15T10:12:34.245Z,91.763
2023-04-15T10:13:34.416Z,91.349
2023-04-15T10:14:34.543Z,91.566
2023-04-15T10:15:33.875Z,91.580
2023-04-15T10:16:34.363Z,91.000
2023-04-15T10:17:33.797Z,92.051
2023-04-15T10:18:35.059Z,91.498
2023-04-15T10:19:34.652Z,91.419
2023-04-15T10:20:35.173Z,90.422
2023-04-15T10:21:34.693Z,91.171
2023-04-15T10:22:35.145Z,91.082
2023-04-15T10:23:34.672Z,91.286
2023-04-15T10:25:34.599Z,91.112
2023-04-15T10:26:33.779Z,90.880
2023-04-15T10:27:34.034Z,91.341
2023-04-15T10:28:34.259Z,91.076
2023-04-15T10:29:34.621Z,90.847
2023-04-15T10:30:33.774Z,90.162
2023-04-15T10:31:34.259Z,90.223
2023-04-15T10:32:33.853Z,91.023
2023-04-15T10:33:34.260Z,89.930
2023-04-15T10:34:34.517Z,90.021
2023-04-15T10:35:34.617Z,90.187
2023-04-15T10:36:33.885Z,90.000
2023-04-15T10:37:34.096Z,90.855
2023-04-15T10:38:34.343Z,90.893
2023-04-15T10:39:34.722Z,90.723
2023-04-15T10:40:34.000Z,89.886
2023-04-15T10:42:34.303Z,90.290
2023-04-15T10:43:34.472Z,90.439
2023-04-15T10:44:34.624Z,90.204
2023-04-15T10:45:33.748Z,90.418
2023-04-15T10:46:34.056Z,89.876
2023-04-15T10:47:34.475Z,89.520
2023-04-15T10:48:34.011Z,89.605
2023-04-15T10:49:34.412Z,88.503
2023-04-15T10:50:33.823Z,88.545
2023-04-15T10:51:34.037Z,88.659
2023-04-15T10:52:34.263Z,87.400
2023-04-15T10:53:34.624Z,88.265
2023-04-15T10:54:33.830Z,88.947
2023-04-15T10:55:34.019Z,88.799
2023-04-15T10:56:34.235Z,88.560
2023-04-15T10:57:34.411Z,88.347
2023-04-15T10:58:34.619Z,88.596
2023-04-15T10:59:33.906Z,87.843
2023-04-15T11:00:34.199Z,88.383
2023-04-15T11:01:34.615Z,88.551
2023-04-15T11:02:34.824Z,88.347
2023-04-15T11:03:35.148Z,88.741
2023-04-15T11:04:34.318Z,88.614
2023-04-15T11:05:34.029Z,88.841
2023-04-15T11:06:34.350Z,88.841
2023-04-15T11:07:34.591Z,89.174
2023-04-15T11:08:33.861Z,88.646
2023-04-15T11:09:34.254Z,88.574
2023-04-15T11:10:34.512Z,88.392
2023-04-15T11:11:33.680Z,88.663
2023-04-15T11:12:33.852Z,88.221
2023-04-15T11:13:34.151Z,88.106
2023-04-15T11:14:34.375Z,87.402
2023-04-15T11:15:34.571Z,87.847
2023-04-15T11:16:33.865Z,87.116
2023-04-15T11:18:33.854Z,88.001
2023-04-15T11:19:34.088Z,87.137
2023-04-15T11:20:34.375Z,87.130
2023-04-15T11:21:34.600Z,86.580
2023-04-15T11:22:33.769Z,87.399
2023-04-15T11:23:34.008Z,87.530
2023-04-15T11:24:34.236Z,86.615
2023-04-15T11:25:34.725Z,86.609
2023-04-15T11:26:33.870Z,85.934
2023-04-15T11:27:34.398Z,86.895
2023-04-15T11:28:34.794Z,86.597
2023-04-15T11:29:34.563Z,86.645
2023-04-15T11:30:33.751Z,86.103
2023-04-15T11:31:34.244Z,86.330
2023-04-15T11:32:33.728Z,86.559
2023-04-15T11:33:34.042Z,86.487
2023-04-15T11:34:36.511Z,86.092
2023-04-15T11:35:33.614Z,86.332
2023-04-15T11:36:33.896Z,85.869
2023-04-15T11:37:34.183Z,86.391
2023-04-15T11:38:34.504Z,85.466
2023-04-15T11:39:33.705Z,86.102
2023-04-15T11:40:33.885Z,84.841
2023-04-15T11:41:34.161Z,85.470
2023-04-15T11:42:48.986Z,86.245
2023-04-15T11:44:34.823Z,86.380
2023-04-15T11:45:34.248Z,86.235
2023-04-15T11:46:33.709Z,86.445
2023-04-15T11:47:33.978Z,86.380
2023-04-15T11:48:34.241Z,86.296
2023-04-15T11:49:34.463Z,85.905
2023-04-15T11:50:33.701Z,85.663
2023-04-15T11:51:33.948Z,84.562
2023-04-15T11:52:34.203Z,83.895
2023-04-15T11:53:34.453Z,85.011
2023-04-15T11:54:33.632Z,84.209
2023-04-15T11:55:33.822Z,83.340
2023-04-15T11:56:33.974Z,82.949
2023-04-15T11:57:34.199Z,83.094
2023-04-15T11:58:35.399Z,83.597
2023-04-15T11:59:44.417Z,82.262
2023-04-15T12:01:33.866Z,81.955
2023-04-15T12:02:34.493Z,80.488
2023-04-15T12:03:35.101Z,80.650
2023-04-15T12:04:34.338Z,80.278
2023-04-15T12:06:34.012Z,80.805
2023-04-15T12:07:34.201Z,80.402
2023-04-15T12:08:34.399Z,81.219
2023-04-15T12:09:34.031Z,82.359
2023-04-15T12:10:34.229Z,81.318
2023-04-15T12:11:34.453Z,82.235
2023-04-15T12:13:33.875Z,81.776
2023-04-15T12:14:34.239Z,82.495
2023-04-15T12:15:34.580Z,82.647
2023-04-15T12:16:35.868Z,82.844
2023-04-15T12:17:51.229Z,82.102
2023-04-15T12:19:38.852Z,82.039
2023-04-15T12:20:39.067Z,81.228
2023-04-15T12:21:39.459Z,81.404
2023-04-15T12:23:39.140Z,81.173
2023-04-15T12:24:39.487Z,81.163
2023-04-15T12:25:38.727Z,81.173
2023-04-15T12:26:38.974Z,81.289
2023-04-15T12:27:39.234Z,81.726
2023-04-15T12:28:39.436Z,80.692
2023-04-15T12:29:39.654Z,81.604
2023-04-15T12:30:38.918Z,80.959
2023-04-15T12:31:39.621Z,81.314
2023-04-15T12:32:39.605Z,81.186
2023-04-15T12:33:38.781Z,81.293
2023-04-15T12:34:39.027Z,81.512
2023-04-15T12:35:39.203Z,81.827
2023-04-15T12:36:39.428Z,81.655
2023-04-15T12:37:38.660Z,81.949
2023-04-15T12:38:38.857Z,81.982
2023-04-15T12:39:39.159Z,82.544
2023-04-15T12:40:39.524Z,82.071
2023-04-15T12:41:38.733Z,81.745
2023-04-15T12:42:38.871Z,81.846
2023-04-15T12:43:39.275Z,82.439
2023-04-15T12:44:39.450Z,82.226
2023-04-15T12:45:38.632Z,82.291
2023-04-15T12:46:39.270Z,82.350
2023-04-15T12:47:38.947Z,82.691
2023-04-15T12:48:39.341Z,82.483
2023-04-15T12:49:38.706Z,82.622
2023-04-15T12:50:38.931Z,82.985
2023-04-15T12:51:39.231Z,83.015
2023-04-15T12:52:39.519Z,82.893
2023-04-15T12:53:38.748Z,82.706
2023-04-15T12:54:39.033Z,83.202
2023-04-15T12:55:39.272Z,83.134